createdAt,value
2023-05-14T00:01:21.316Z,58.33
2023-05-14T00:03:14.667Z,58.45
2023-05-14T00:05:09.039Z,58.42
2023-05-14T00:07:02.015Z,58.52
2023-05-14T00:08:54.953Z,58.26
2023-05-14T00:10:47.806Z,58.37
2023-05-14T00:12:41.159Z,58.67
2023-05-14T00:14:34.100Z,58.71
2023-05-14T00:16:27.003Z,58.98
2023-05-14T00:18:20.014Z,59.08
2023-05-14T00:20:12.952Z,59.35
2023-05-14T00:22:06.205Z,59.28
2023-05-14T00:23:59.041Z,59.33
2023-05-14T00:25:51.888Z,59.44
2023-05-14T00:27:44.743Z,59.60
2023-05-14T00:29:37.510Z,59.72
2023-05-14T00:31:30.705Z,59.69
2023-05-14T00:33:23.800Z,59.79
2023-05-14T00:35:16.857Z,59.94
2023-05-14T00:37:09.793Z,60.14
2023-05-14T00:39:02.738Z,60.22
2023-05-14T00:40:55.724Z,60.41
2023-05-14T00:42:48.631Z,60.15
2023-05-14T00:44:41.512Z,60.11
2023-05-14T00:46:34.430Z,59.93
2023-05-14T00:48:27.882Z,60.03
2023-05-14T00:50:21.820Z,59.96
2023-05-14T00:52:16.554Z,59.93
2023-05-14T00:54:09.595Z,59.95
2023-05-14T00:56:02.958Z,59.97
2023-05-14T00:57:58.173Z,60.13
2023-05-14T00:59:51.101Z,60.01
2023-05-14T01:01:44.152Z,60.30
2023-05-14T01:03:37.459Z,60.21
2023-05-14T01:05:54.825Z,60.09
2023-05-14T01:08:05.472Z,60.71
2023-05-14T01:10:06.143Z,60.82
2023-05-14T01:12:21.490Z,60.79
2023-05-14T01:14:22.019Z,60.83
2023-05-14T01:16:18.821Z,61.03
2023-05-14T01:18:17.238Z,61.15
2023-05-14T01:20:11.532Z,61.13
2023-05-14T01:22:04.564Z,61.26
2023-05-14T01:23:57.426Z,61.29
2023-05-14T01:25:50.666Z,61.40
2023-05-14T01:27:51.659Z,61.46
2023-05-14T01:29:52.673Z,61.57
2023-05-14T01:31:47.895Z,61.67
2023-05-14T01:33:43.430Z,61.61
2023-05-14T01:35:37.180Z,61.68
2023-05-14T01:37:32.632Z,61.83
2023-05-14T01:39:27.005Z,62.03
2023-05-14T01:41:21.986Z,61.82
2023-05-14T01:43:15.820Z,62.12
2023-05-14T01:45:09.840Z,61.78
2023-05-14T01:47:03.721Z,61.97
2023-05-14T01:48:56.554Z,62.04
2023-05-14T01:50:49.506Z,62.15
2023-05-14T01:52:42.959Z,62.17
2023-05-14T01:54:35.911Z,62.39
2023-05-14T01:56:29.138Z,62.49
2023-05-14T01:58:22.010Z,62.32
2023-05-14T02:00:15.112Z,62.42
2023-05-14T02:02:07.925Z,62.49
2023-05-14T02:04:01.718Z,62.66
2023-05-14T02:05:54.617Z,62.73
2023-05-14T02:07:47.570Z,62.83
2023-05-14T02:09:41.145Z,63.03
2023-05-14T02:11:34.082Z,63.16
2023-05-14T02:13:27.135Z,63.13
2023-05-14T02:15:20.098Z,63.39
2023-05-14T02:17:15.995Z,63.37
2023-05-14T02:19:09.014Z,63.62
2023-05-14T02:21:02.110Z,63.70
2023-05-14T02:22:55.254Z,63.83
2023-05-14T02:24:49.838Z,63.67
2023-05-14T02:26:44.032Z,63.79
2023-05-14T02:28:36.986Z,63.94
2023-05-14T02:30:31.351Z,63.98
2023-05-14T02:32:24.356Z,64.02
2023-05-14T02:34:17.858Z,64.05
2023-05-14T02:36:10.836Z,64.03
2023-05-14T02:38:04.267Z,64.32
2023-05-14T02:39:57.219Z,64.49
2023-05-14T02:41:50.692Z,64.58
2023-05-14T02:43:43.839Z,64.60
2023-05-14T02:45:36.689Z,64.85
2023-05-14T02:47:29.583Z,64.82
2023-05-14T02:49:22.575Z,64.71
2023-05-14T02:51:16.441Z,65.10
2023-05-14T02:53:09.310Z,65.00
2023-05-14T02:55:02.746Z,65.82
2023-05-14T02:56:55.561Z,65.13
2023-05-14T02:58:48.647Z,65.43
2023-05-14T03:00:41.509Z,65.41
2023-05-14T03:02:35.997Z,65.41
2023-05-14T03:04:29.442Z,65.59
2023-05-14T03:06:22.386Z,65.76
2023-05-14T03:08:15.742Z,65.84
2023-05-14T03:10:10.136Z,65.64
2023-05-14T03:12:03.070Z,65.64
2023-05-14T03:13:56.146Z,65.82
2023-05-14T03:15:49.275Z,65.80
2023-05-14T03:17:42.176Z,65.77
2023-05-14T03:19:35.481Z,65.94
2023-05-14T03:21:28.734Z,65.78
2023-05-14T03:23:21.787Z,65.64
2023-05-14T03:25:14.730Z,65.71
2023-05-14T03:27:07.693Z,65.54
2023-05-14T03:29:00.626Z,65.33
2023-05-14T03:30:53.646Z,65.36
2023-05-14T03:32:46.677Z,65.22
2023-05-14T03:34:39.893Z,65.29
2023-05-14T03:36:34.371Z,65.37
2023-05-14T03:38:27.319Z,65.42
2023-05-14T03:40:21.519Z,65.89
2023-05-14T03:42:14.744Z,65.73
2023-05-14T03:44:07.593Z,65.41
2023-05-14T03:46:00.743Z,65.33
2023-05-14T03:47:54.057Z,65.17
2023-05-14T03:49:47.152Z,64.86
2023-05-14T03:51:41.036Z,64.45
2023-05-14T03:53:33.972Z,64.16
2023-05-14T03:55:26.932Z,64.17
2023-05-14T03:57:19.863Z,64.10
2023-05-14T03:59:12.713Z,63.80
2023-05-14T04:01:05.778Z,63.72
2023-05-14T04:02:58.781Z,63.44
2023-05-14T04:04:51.818Z,63.55
2023-05-14T04:06:46.451Z,63.22
2023-05-14T04:08:39.401Z,63.20
2023-05-14T04:10:32.436Z,63.12
2023-05-14T04:12:27.036Z,63.02
2023-05-14T04:14:20.292Z,63.06
2023-05-14T04:16:14.278Z,62.96
2023-05-14T04:18:07.404Z,63.10
2023-05-14T04:20:00.570Z,62.89
2023-05-14T04:21:53.518Z,62.93
2023-05-14T04:23:46.372Z,62.94
2023-05-14T04:25:39.211Z,62.97
2023-05-14T04:27:33.280Z,62.87
2023-05-14T04:29:26.141Z,62.65
2023-05-14T04:31:19.032Z,62.85
2023-05-14T04:33:12.123Z,62.42
2023-05-14T04:35:05.799Z,62.24
2023-05-14T04:36:58.641Z,62.40
2023-05-14T04:38:51.790Z,62.34
2023-05-14T04:40:44.731Z,61.82
2023-05-14T04:42:37.782Z,61.87
2023-05-14T04:44:30.606Z,61.87
2023-05-14T04:46:23.525Z,61.63
2023-05-14T04:48:16.731Z,61.79
2023-05-14T04:50:10.067Z,61.12
2023-05-14T04:52:03.037Z,60.91
2023-05-14T04:53:55.992Z,60.63
2023-05-14T04:55:48.830Z,60.46
2023-05-14T04:57:41.781Z,59.93
2023-05-14T04:59:34.644Z,60.10
2023-05-14T05:01:27.486Z,60.39
2023-05-14T05:03:20.529Z,60.01
2023-05-14T05:05:13.578Z,60.19
2023-05-14T05:07:06.423Z,59.98
2023-05-14T05:09:01.842Z,59.87
2023-05-14T05:10:55.086Z,59.85
2023-05-14T05:12:47.928Z,59.65
2023-05-14T05:14:40.781Z,59.17
2023-05-14T05:16:33.763Z,59.15
2023-05-14T05:18:26.728Z,59.07
2023-05-14T05:20:19.727Z,58.98
2023-05-14T05:22:12.788Z,59.11
2023-05-14T05:24:06.140Z,58.97
2023-05-14T05:25:59.084Z,59.03
2023-05-14T05:27:51.930Z,59.23
2023-05-14T05:29:44.771Z,59.22
2023-05-14T05:31:39.001Z,59.38
2023-05-14T05:33:32.109Z,58.94
2023-05-14T05:35:25.054Z,58.68
2023-05-14T05:37:18.003Z,58.13
2023-05-14T05:39:11.265Z,58.46
2023-05-14T05:41:04.304Z,58.49
2023-05-14T05:42:57.148Z,58.04
2023-05-14T05:44:49.992Z,57.97
2023-05-14T05:46:43.024Z,57.84
2023-05-14T05:48:35.992Z,57.49
2023-05-14T05:50:28.838Z,56.62
2023-05-14T05:52:21.686Z,56.44
2023-05-14T05:54:14.627Z,56.44
2023-05-14T05:56:07.581Z,56.09
2023-05-14T05:58:00.631Z,56.24
2023-05-14T05:59:53.486Z,56.38
2023-05-14T06:01:46.351Z,57.27
2023-05-14T06:03:39.277Z,56.28
2023-05-14T06:05:32.190Z,55.81
2023-05-14T06:07:25.268Z,55.56
2023-05-14T06:09:18.214Z,55.07
2023-05-14T06:11:11.171Z,54.74
2023-05-14T06:13:04.033Z,54.42
2023-05-14T06:14:58.102Z,54.52
2023-05-14T06:16:50.968Z,54.54
2023-05-14T06:18:44.014Z,53.69
2023-05-14T06:20:37.135Z,54.09
2023-05-14T06:22:29.981Z,53.40
2023-05-14T06:24:22.927Z,53.69
2023-05-14T06:26:15.984Z,53.77
2023-05-14T06:28:08.788Z,53.73
2023-05-14T06:30:01.640Z,53.31
2023-05-14T06:31:54.564Z,53.35
2023-05-14T06:33:47.568Z,52.99
2023-05-14T06:35:40.516Z,53.36
2023-05-14T06:37:33.564Z,53.45
2023-05-14T06:39:26.457Z,53.20
2023-05-14T06:41:19.355Z,52.93
2023-05-14T06:43:12.309Z,52.65
2023-05-14T06:45:06.632Z,52.40
2023-05-14T06:46:59.536Z,52.36
2023-05-14T06:48:52.453Z,52.68
2023-05-14T06:50:46.560Z,51.83
2023-05-14T06:52:39.603Z,51.08
2023-05-14T06:54:32.558Z,50.63
2023-05-14T06:56:25.360Z,50.49
2023-05-14T06:58:18.244Z,50.27
2023-05-14T07:00:11.696Z,49.75
2023-05-14T07:02:04.655Z,50.42
2023-05-14T07:03:58.746Z,49.11
2023-05-14T07:05:52.206Z,48.00
2023-05-14T07:07:45.341Z,47.49
2023-05-14T07:09:38.192Z,46.30
2023-05-14T07:11:31.039Z,45.52
2023-05-14T07:13:25.745Z,45.40
2023-05-14T07:15:21.452Z,44.63
2023-05-14T07:17:15.219Z,45.37
2023-05-14T07:19:08.388Z,44.41
2023-05-14T07:21:01.304Z,44.77
2023-05-14T07:22:54.250Z,44.80
2023-05-14T07:24:47.200Z,42.95
2023-05-14T07:26:40.250Z,42.28
2023-05-14T07:28:34.426Z,43.30
2023-05-14T07:30:27.540Z,42.83
2023-05-14T07:32:23.301Z,41.35
2023-05-14T07:34:16.244Z,41.53
2023-05-14T07:36:09.213Z,41.57
2023-05-14T07:38:02.257Z,39.03
2023-05-14T07:39:56.061Z,38.59
2023-05-14T07:41:50.341Z,40.41
2023-05-14T07:43:43.341Z,40.28
2023-05-14T07:45:39.364Z,38.29
2023-05-14T07:47:32.369Z,37.67
2023-05-14T07:49:25.372Z,37.92
2023-05-14T07:51:18.308Z,38.26
2023-05-14T07:53:11.253Z,38.81
2023-05-14T07:55:04.404Z,39.18
2023-05-14T07:56:57.362Z,39.39
2023-05-14T07:58:51.536Z,38.64
2023-05-14T08:00:44.491Z,39.33
2023-05-14T08:02:37.401Z,39.04
2023-05-14T08:04:30.625Z,39.05
2023-05-14T08:06:27.620Z,37.74
2023-05-14T08:08:20.473Z,39.32
2023-05-14T08:10:13.417Z,39.29
2023-05-14T08:12:07.630Z,38.54
2023-05-14T08:14:00.853Z,38.22
2023-05-14T08:15:53.703Z,38.78
2023-05-14T08:17:46.524Z,39.36
2023-05-14T08:19:39.419Z,40.12
2023-05-14T08:21:32.957Z,40.32
2023-05-14T08:23:26.728Z,38.61
2023-05-14T08:25:19.567Z,39.06
2023-05-14T08:27:12.413Z,39.97
2023-05-14T08:29:05.881Z,38.55
2023-05-14T08:30:58.975Z,38.10
2023-05-14T08:32:52.975Z,37.64
2023-05-14T08:34:46.364Z,38.41
2023-05-14T08:36:39.537Z,37.88
2023-05-14T08:38:33.027Z,37.52
2023-05-14T08:40:27.168Z,37.41
2023-05-14T08:42:21.962Z,36.59
2023-05-14T08:44:19.267Z,37.36
2023-05-14T08:46:14.489Z,35.99
2023-05-14T08:48:09.166Z,35.62
2023-05-14T08:50:05.623Z,35.33
2023-05-14T08:51:59.993Z,35.92
2023-05-14T08:53:53.042Z,33.67
2023-05-14T08:55:48.152Z,34.09
2023-05-14T08:57:41.397Z,34.86
2023-05-14T08:59:34.339Z,33.90
2023-05-14T09:01:27.348Z,33.76
2023-05-14T09:03:21.414Z,33.26
2023-05-14T09:05:15.338Z,32.19
2023-05-14T09:07:08.526Z,32.58
2023-05-14T09:09:01.541Z,30.99
2023-05-14T09:10:54.313Z,30.76
2023-05-14T09:12:47.116Z,32.04
2023-05-14T09:14:40.072Z,30.57
2023-05-14T09:16:33.194Z,30.26
2023-05-14T09:18:26.194Z,30.27
2023-05-14T09:20:19.333Z,30.90
2023-05-14T09:22:14.184Z,30.43
2023-05-14T09:24:08.197Z,31.38
2023-05-14T09:26:05.623Z,32.20
2023-05-14T09:27:59.139Z,29.75
2023-05-14T09:29:52.052Z,29.98
2023-05-14T09:31:45.520Z,30.09
2023-05-14T09:33:39.078Z,30.30
2023-05-14T09:35:32.566Z,30.24
2023-05-14T09:37:26.219Z,29.64
2023-05-14T09:39:19.877Z,30.43
2023-05-14T09:41:12.817Z,28.72
2023-05-14T09:43:06.175Z,28.60
2023-05-14T09:44:59.326Z,28.84
2023-05-14T09:46:53.690Z,28.99
2023-05-14T09:48:46.698Z,29.23
2023-05-14T09:50:46.964Z,29.25
2023-05-14T09:52:41.257Z,29.18
2023-05-14T09:54:34.717Z,29.27
2023-05-14T09:56:27.667Z,29.98
2023-05-14T09:58:21.246Z,28.89
2023-05-14T10:00:16.201Z,28.72
2023-05-14T10:02:21.508Z,28.45
2023-05-14T10:04:15.145Z,29.07
2023-05-14T10:06:09.000Z,30.09
2023-05-14T10:08:09.727Z,30.11
2023-05-14T10:10:07.490Z,29.31
2023-05-14T10:12:01.560Z,29.23
2023-05-14T10:14:12.536Z,29.41
2023-05-14T10:16:15.207Z,29.75
2023-05-14T10:18:12.511Z,29.15
2023-05-14T10:20:09.403Z,29.44
2023-05-14T10:22:08.943Z,29.73
2023-05-14T10:24:04.474Z,29.81
2023-05-14T10:25:58.941Z,29.95
2023-05-14T10:27:51.948Z,30.02
2023-05-14T10:29:54.068Z,29.50
2023-05-14T10:31:55.254Z,28.95
2023-05-14T10:33:52.303Z,29.06
2023-05-14T10:35:59.622Z,29.30
2023-05-14T10:37:52.536Z,29.47
2023-05-14T10:40:13.123Z,28.80
2023-05-14T10:42:09.295Z,29.25
2023-05-14T10:44:09.569Z,29.86
2023-05-14T10:46:05.199Z,29.54
2023-05-14T10:47:58.266Z,29.43
2023-05-14T10:49:54.936Z,29.92
2023-05-14T10:51:49.764Z,30.33
2023-05-14T10:53:43.347Z,30.38
2023-05-14T10:55:36.540Z,30.55
2023-05-14T10:57:31.729Z,30.49
2023-05-14T10:59:27.896Z,30.13
2023-05-14T11:01:24.431Z,30.22
2023-05-14T11:03:18.430Z,30.45
2023-05-14T11:05:17.432Z,30.93
2023-05-14T11:07:10.850Z,30.97
2023-05-14T11:09:05.787Z,31.59
2023-05-14T11:10:58.798Z,32.16
2023-05-14T11:12:52.875Z,32.13
2023-05-14T11:14:47.254Z,32.47
2023-05-14T11:16:41.558Z,31.95
2023-05-14T11:18:38.703Z,31.18
2023-05-14T11:20:32.957Z,30.36
2023-05-14T11:22:25.904Z,30.78
2023-05-14T11:24:18.854Z,31.65
2023-05-14T11:26:12.996Z,30.91
2023-05-14T11:28:05.980Z,30.98
2023-05-14T11:30:01.282Z,32.18
2023-05-14T11:31:54.769Z,30.44
2023-05-14T11:33:47.608Z,30.61
2023-05-14T11:35:42.175Z,30.89
2023-05-14T11:37:38.405Z,30.17
2023-05-14T11:39:33.135Z,30.60
2023-05-14T11:41:28.322Z,30.57
2023-05-14T11:43:23.926Z,30.41
2023-05-14T11:45:27.802Z,29.95
2023-05-14T11:47:22.215Z,30.63
2023-05-14T11:49:15.034Z,31.39
2023-05-14T11:51:07.978Z,32.13
2023-05-14T11:53:00.837Z,32.69
2023-05-14T11:54:53.673Z,32.96
2023-05-14T11:56:51.533Z,33.10
2023-05-14T11:58:48.887Z,32.99
2023-05-14T12:00:44.908Z,32.50
2023-05-14T12:02:38.469Z,31.72
2023-05-14T12:04:32.227Z,31.78
2023-05-14T12:06:32.169Z,31.76
2023-05-14T12:08:32.983Z,32.51
2023-05-14T12:10:26.226Z,33.16
2023-05-14T12:12:23.125Z,33.14
2023-05-14T12:14:24.111Z,33.49
2023-05-14T12:16:17.920Z,33.61
2023-05-14T12:18:22.948Z,33.26
2023-05-14T12:20:17.498Z,34.10
2023-05-14T12:22:11.885Z,34.71
2023-05-14T12:24:06.166Z,34.69
2023-05-14T12:26:06.250Z,33.97
2023-05-14T12:27:59.628Z,33.87
2023-05-14T12:30:19.151Z,33.28
2023-05-14T12:32:14.597Z,33.22
2023-05-14T12:34:07.456Z,33.51
2023-05-14T12:36:13.520Z,33.47
2023-05-14T12:38:14.246Z,34.39
2023-05-14T12:40:10.704Z,34.46
2023-05-14T12:42:03.730Z,34.43
2023-05-14T12:43:57.696Z,34.51
2023-05-14T12:45:50.540Z,35.42
2023-05-14T12:47:43.515Z,34.62
2023-05-14T12:49:36.552Z,34.52
2023-05-14T12:51:30.002Z,34.51
2023-05-14T12:53:22.869Z,34.21
2023-05-14T12:55:15.900Z,34.46
2023-05-14T12:57:08.843Z,34.84
2023-05-14T12:59:01.791Z,34.98
2023-05-14T13:00:54.874Z,35.19
2023-05-14T13:02:47.816Z,34.98
2023-05-14T13:04:41.710Z,34.30
2023-05-14T13:06:36.763Z,35.22
2023-05-14T13:08:30.013Z,35.17
2023-05-14T13:10:23.002Z,34.25
2023-05-14T13:12:15.912Z,33.49
2023-05-14T13:14:08.796Z,34.45
2023-05-14T13:16:01.709Z,34.05
2023-05-14T13:17:54.602Z,33.91
2023-05-14T13:19:47.517Z,34.00
2023-05-14T13:21:40.526Z,33.57
2023-05-14T13:23:34.004Z,35.27
2023-05-14T13:25:27.878Z,34.29
2023-05-14T13:27:28.581Z,34.03
2023-05-14T13:29:21.466Z,34.34
2023-05-14T13:31:17.239Z,33.45
2023-05-14T13:33:23.333Z,33.28
2023-05-14T13:35:28.483Z,34.26
2023-05-14T13:37:21.405Z,34.37
2023-05-14T13:39:14.525Z,34.04
2023-05-14T13:41:08.702Z,33.61
2023-05-14T13:43:01.633Z,34.91
2023-05-14T13:44:56.411Z,33.46
2023-05-14T13:46:49.767Z,34.04
2023-05-14T13:48:42.781Z,35.22
2023-05-14T13:50:35.624Z,34.61
2023-05-14T13:52:28.580Z,34.25
2023-05-14T13:54:21.931Z,34.74
2023-05-14T13:56:14.779Z,34.71
2023-05-14T13:58:10.062Z,34.51
2023-05-14T14:00:03.113Z,35.07
2023-05-14T14:01:57.064Z,35.29
2023-05-14T14:03:50.062Z,34.58
2023-05-14T14:05:42.914Z,35.21
2023-05-14T14:07:35.952Z,35.26
2023-05-14T14:09:28.899Z,34.21
2023-05-14T14:11:22.169Z,35.21
2023-05-14T14:13:15.114Z,35.51
2023-05-14T14:15:08.497Z,35.50
2023-05-14T14:17:01.414Z,36.65
2023-05-14T14:18:57.536Z,35.02
2023-05-14T14:20:50.753Z,35.35
2023-05-14T14:22:44.838Z,34.36
2023-05-14T14:24:37.711Z,35.44
2023-05-14T14:26:30.655Z,36.39
2023-05-14T14:28:23.708Z,36.07
2023-05-14T14:30:20.433Z,35.23
2023-05-14T14:32:14.827Z,34.72
2023-05-14T14:34:07.775Z,34.99
2023-05-14T14:36:00.827Z,36.10
2023-05-14T14:37:55.852Z,37.56
2023-05-14T14:39:48.768Z,35.66
2023-05-14T14:41:41.624Z,35.07
2023-05-14T14:43:34.763Z,36.73
2023-05-14T14:45:28.096Z,35.40
2023-05-14T14:47:21.114Z,35.70
2023-05-14T14:49:14.130Z,35.92
2023-05-14T14:51:08.254Z,36.03
2023-05-14T14:53:01.093Z,35.86
2023-05-14T14:54:54.999Z,36.42
2023-05-14T14:56:49.295Z,36.58
2023-05-14T14:58:42.445Z,36.30
2023-05-14T15:00:35.500Z,37.19
2023-05-14T15:02:28.536Z,36.26
2023-05-14T15:04:21.786Z,36.45
2023-05-14T15:06:14.662Z,36.67
2023-05-14T15:08:07.608Z,36.92
2023-05-14T15:10:00.553Z,36.93
2023-05-14T15:11:53.506Z,37.06
2023-05-14T15:13:46.448Z,36.88
2023-05-14T15:15:39.414Z,36.69
2023-05-14T15:17:32.321Z,37.36
2023-05-14T15:19:25.600Z,37.78
2023-05-14T15:21:18.444Z,37.46
2023-05-14T15:23:11.823Z,37.92
2023-05-14T15:25:05.576Z,38.39
2023-05-14T15:26:58.418Z,37.92
2023-05-14T15:28:51.368Z,37.65
2023-05-14T15:30:48.076Z,37.76
2023-05-14T15:32:41.604Z,37.97
2023-05-14T15:34:34.510Z,37.90
2023-05-14T15:36:28.623Z,37.76
2023-05-14T15:38:21.528Z,38.36
2023-05-14T15:40:14.492Z,38.40
2023-05-14T15:42:07.527Z,38.15
2023-05-14T15:44:00.371Z,38.95
2023-05-14T15:45:53.219Z,39.06
2023-05-14T15:47:46.272Z,39.02
2023-05-14T15:49:39.214Z,39.13
2023-05-14T15:51:32.269Z,39.39
2023-05-14T15:53:26.138Z,39.33
2023-05-14T15:55:19.190Z,39.04
2023-05-14T15:57:12.152Z,38.53
2023-05-14T15:59:05.081Z,38.61
2023-05-14T16:00:57.927Z,38.93
2023-05-14T16:02:52.116Z,39.37
2023-05-14T16:04:49.602Z,39.52
2023-05-14T16:06:44.992Z,38.62
2023-05-14T16:08:38.337Z,38.33
2023-05-14T16:10:31.287Z,39.21
2023-05-14T16:12:24.535Z,39.17
2023-05-14T16:14:18.603Z,40.08
2023-05-14T16:16:11.596Z,40.99
2023-05-14T16:18:04.787Z,41.05
2023-05-14T16:19:57.758Z,39.50
2023-05-14T16:21:50.702Z,38.55
2023-05-14T16:23:43.550Z,38.60
2023-05-14T16:25:36.426Z,38.50
2023-05-14T16:27:29.339Z,38.57
2023-05-14T16:29:22.601Z,39.26
2023-05-14T16:31:16.056Z,38.87
2023-05-14T16:33:09.051Z,38.87
2023-05-14T16:35:03.012Z,39.10
2023-05-14T16:36:56.235Z,39.25
2023-05-14T16:39:06.182Z,38.89
2023-05-14T16:41:00.555Z,38.73
2023-05-14T16:42:53.372Z,38.31
2023-05-14T16:44:46.247Z,38.26
2023-05-14T16:46:39.496Z,39.05
2023-05-14T16:48:32.767Z,38.65
2023-05-14T16:50:25.706Z,38.00
2023-05-14T16:52:18.711Z,37.49
2023-05-14T16:54:11.802Z,38.34
2023-05-14T16:56:04.952Z,38.32
2023-05-14T16:57:57.798Z,38.38
2023-05-14T16:59:51.182Z,38.61
2023-05-14T17:01:44.987Z,38.88
2023-05-14T17:03:39.122Z,38.33
2023-05-14T17:05:32.255Z,38.03
2023-05-14T17:07:25.507Z,38.33
2023-05-14T17:09:18.456Z,38.13
2023-05-14T17:11:11.307Z,38.37
2023-05-14T17:13:24.935Z,38.67
2023-05-14T17:15:40.230Z,39.29
2023-05-14T17:17:34.063Z,39.63
2023-05-14T17:19:27.020Z,40.04
2023-05-14T17:21:19.878Z,39.96
2023-05-14T17:23:12.710Z,40.31
2023-05-14T17:25:06.311Z,40.59
2023-05-14T17:26:59.088Z,41.01
2023-05-14T17:28:51.970Z,41.59
2023-05-14T17:30:45.019Z,41.98
2023-05-14T17:32:38.111Z,42.13
2023-05-14T17:34:31.323Z,42.10
2023-05-14T17:36:24.195Z,42.33
2023-05-14T17:38:17.327Z,42.52
2023-05-14T17:40:11.621Z,42.50
2023-05-14T17:42:05.638Z,42.62
2023-05-14T17:43:58.827Z,42.79
2023-05-14T17:45:54.271Z,42.89
2023-05-14T17:47:49.146Z,42.96
2023-05-14T17:49:42.281Z,42.94
2023-05-14T17:51:35.351Z,43.04
2023-05-14T17:53:28.289Z,43.29
2023-05-14T17:55:21.477Z,43.37
2023-05-14T17:57:14.596Z,43.51
2023-05-14T17:59:07.903Z,43.78
2023-05-14T18:01:04.829Z,43.88
2023-05-14T18:02:57.987Z,43.99
2023-05-14T18:04:51.113Z,43.91
2023-05-14T18:06:45.903Z,43.99
2023-05-14T18:08:39.177Z,44.18
2023-05-14T18:10:32.242Z,43.97
2023-05-14T18:12:27.347Z,44.16
2023-05-14T18:14:20.582Z,44.43
2023-05-14T18:16:13.536Z,44.59
2023-05-14T18:18:06.582Z,44.74
2023-05-14T18:20:00.427Z,45.19
2023-05-14T18:21:55.891Z,45.20
2023-05-14T18:23:50.346Z,45.55
2023-05-14T18:25:43.889Z,45.55
2023-05-14T18:27:39.598Z,45.49
2023-05-14T18:29:32.545Z,45.60
2023-05-14T18:31:27.977Z,45.75
2023-05-14T18:33:21.152Z,45.86
2023-05-14T18:35:21.062Z,46.01
2023-05-14T18:37:16.407Z,46.12
2023-05-14T18:39:10.905Z,46.29
2023-05-14T18:41:04.521Z,46.15
2023-05-14T18:42:58.149Z,46.18
2023-05-14T18:44:50.937Z,46.29
2023-05-14T18:46:43.814Z,46.44
2023-05-14T18:48:36.868Z,46.62
2023-05-14T18:50:29.717Z,46.68
2023-05-14T18:52:23.767Z,46.72
2023-05-14T18:54:17.259Z,46.70
2023-05-14T18:56:10.414Z,46.83
2023-05-14T18:58:03.453Z,46.94
2023-05-14T18:59:56.404Z,46.96
2023-05-14T19:01:49.463Z,46.88
2023-05-14T19:03:42.440Z,47.09
2023-05-14T19:05:35.592Z,47.35
2023-05-14T19:07:28.614Z,47.46
2023-05-14T19:09:21.836Z,47.66
2023-05-14T19:11:17.331Z,47.74
2023-05-14T19:13:10.830Z,47.68
2023-05-14T19:15:16.080Z,47.57
2023-05-14T19:17:09.222Z,47.50
2023-05-14T19:19:02.289Z,47.41
2023-05-14T19:20:56.959Z,47.56
2023-05-14T19:22:50.923Z,47.73
2023-05-14T19:24:43.880Z,47.44
2023-05-14T19:26:36.826Z,46.97
2023-05-14T19:28:30.618Z,46.80
2023-05-14T19:30:23.536Z,47.00
2023-05-14T19:32:16.616Z,47.18
2023-05-14T19:34:09.740Z,47.22
2023-05-14T19:36:02.833Z,47.79
2023-05-14T19:37:55.739Z,47.54
2023-05-14T19:39:48.809Z,47.67
2023-05-14T19:41:42.051Z,47.61
2023-05-14T19:43:34.921Z,47.78
2023-05-14T19:45:28.046Z,47.94
2023-05-14T19:47:20.991Z,47.65
2023-05-14T19:49:14.262Z,47.65
2023-05-14T19:51:07.300Z,48.17
2023-05-14T19:53:00.858Z,48.46
2023-05-14T19:54:53.831Z,48.68
2023-05-14T19:56:46.994Z,48.90
2023-05-14T19:58:39.920Z,49.17
2023-05-14T20:00:33.509Z,49.09
2023-05-14T20:02:26.758Z,49.17
2023-05-14T20:04:19.886Z,49.37
2023-05-14T20:06:13.336Z,49.65
2023-05-14T20:08:08.156Z,49.85
2023-05-14T20:10:01.423Z,49.91
2023-05-14T20:11:55.080Z,50.16
2023-05-14T20:13:48.009Z,50.29
2023-05-14T20:15:41.153Z,50.43
2023-05-14T20:17:33.975Z,50.66
2023-05-14T20:19:27.665Z,50.62
2023-05-14T20:21:20.715Z,50.96
2023-05-14T20:23:13.561Z,50.94
2023-05-14T20:25:07.542Z,51.06
2023-05-14T20:27:00.486Z,51.18
2023-05-14T20:28:53.847Z,51.37
2023-05-14T20:30:46.718Z,51.78
2023-05-14T20:32:39.683Z,51.83
2023-05-14T20:34:32.687Z,51.94
2023-05-14T20:36:26.246Z,51.49
2023-05-14T20:38:19.195Z,51.47
2023-05-14T20:40:12.808Z,51.76
2023-05-14T20:42:06.218Z,51.89
2023-05-14T20:43:59.178Z,51.44
2023-05-14T20:45:52.114Z,51.46
2023-05-14T20:47:45.097Z,51.13
2023-05-14T20:49:37.918Z,51.10
2023-05-14T20:51:30.958Z,50.87
2023-05-14T20:53:25.448Z,50.92
2023-05-14T20:55:19.105Z,50.88
2023-05-14T20:57:12.934Z,51.09
2023-05-14T20:59:05.929Z,50.94
2023-05-14T21:01:00.431Z,50.83
2023-05-14T21:02:55.239Z,50.80
2023-05-14T21:04:49.995Z,50.89
2023-05-14T21:06:45.681Z,51.02
2023-05-14T21:08:41.335Z,51.15
2023-05-14T21:10:35.503Z,51.15
2023-05-14T21:12:28.646Z,51.28
2023-05-14T21:14:21.867Z,51.51
2023-05-14T21:16:14.894Z,51.53
2023-05-14T21:18:07.900Z,51.70
2023-05-14T21:20:01.158Z,51.66
2023-05-14T21:21:54.034Z,51.71
2023-05-14T21:23:46.891Z,51.71
2023-05-14T21:25:39.707Z,51.89
2023-05-14T21:27:49.071Z,51.97
2023-05-14T21:31:03.903Z,51.92
2023-05-14T21:32:56.967Z,52.19
2023-05-14T21:34:49.900Z,52.32
2023-05-14T21:36:43.151Z,52.33
2023-05-14T21:38:36.196Z,52.28
2023-05-14T21:40:29.044Z,52.56
2023-05-14T21:42:22.094Z,52.82
2023-05-14T21:44:14.948Z,52.78
2023-05-14T21:46:08.708Z,52.72
2023-05-14T21:48:01.658Z,52.71
2023-05-14T21:49:54.604Z,52.76
2023-05-14T21:51:48.987Z,52.73
2023-05-14T21:53:41.938Z,52.99
2023-05-14T21:55:35.106Z,53.02
2023-05-14T21:57:28.911Z,53.03
2023-05-14T21:59:22.724Z,53.22
2023-05-14T22:01:15.571Z,53.14
2023-05-14T22:03:08.672Z,53.08
2023-05-14T22:05:02.119Z,53.12
2023-05-14T22:06:54.983Z,53.19
2023-05-14T22:08:47.876Z,53.30
2023-05-14T22:10:40.924Z,53.18
2023-05-14T22:12:33.769Z,53.26
2023-05-14T22:14:27.405Z,53.25
2023-05-14T22:16:22.487Z,53.46
2023-05-14T22:18:15.779Z,53.30
2023-05-14T22:20:12.561Z,53.17
2023-05-14T22:22:05.576Z,53.32
2023-05-14T22:23:58.464Z,53.36
2023-05-14T22:25:51.378Z,53.39
2023-05-14T22:27:44.520Z,53.17
2023-05-14T22:29:38.377Z,53.45
2023-05-14T22:31:31.482Z,53.16
2023-05-14T22:33:24.595Z,53.27
2023-05-14T22:35:17.639Z,53.16
2023-05-14T22:37:10.748Z,53.29
2023-05-14T22:39:03.640Z,53.42
2023-05-14T22:40:56.487Z,53.55
2023-05-14T22:42:49.299Z,53.59
2023-05-14T22:44:42.176Z,53.74
2023-05-14T22:46:35.245Z,53.72
2023-05-14T22:48:28.287Z,53.93
2023-05-14T22:50:21.225Z,53.99
2023-05-14T22:52:14.078Z,54.00
2023-05-14T22:54:07.126Z,54.05
2023-05-14T22:55:59.974Z,54.00
2023-05-14T22:57:52.920Z,54.18
2023-05-14T22:59:45.764Z,54.17
2023-05-14T23:01:39.149Z,54.27
2023-05-14T23:03:32.176Z,54.42
2023-05-14T23:05:25.381Z,54.49
2023-05-14T23:07:18.686Z,54.72
2023-05-14T23:09:11.531Z,54.81
2023-05-14T23:11:04.385Z,54.92
2023-05-14T23:12:57.445Z,54.90
2023-05-14T23:14:50.273Z,54.97
2023-05-14T23:16:43.224Z,55.19
2023-05-14T23:18:36.234Z,55.04
2023-05-14T23:20:29.221Z,55.15
2023-05-14T23:22:22.163Z,55.24
2023-05-14T23:24:15.118Z,55.22
2023-05-14T23:26:07.972Z,55.21
2023-05-14T23:28:01.015Z,55.25
2023-05-14T23:29:53.854Z,55.40
2023-05-14T23:31:46.845Z,55.25
2023-05-14T23:33:39.980Z,55.37
2023-05-14T23:35:32.904Z,55.45
2023-05-14T23:37:25.953Z,55.45
2023-05-14T23:39:18.906Z,55.50
2023-05-14T23:41:11.746Z,55.52
2023-05-14T23:43:04.597Z,55.58
2023-05-14T23:44:57.390Z,55.62
2023-05-14T23:46:50.805Z,55.75
2023-05-14T23:48:43.959Z,55.68
2023-05-14T23:50:37.099Z,55.80
2023-05-14T23:52:29.962Z,55.82
2023-05-14T23:54:22.794Z,56.01
2023-05-14T23:56:16.160Z,55.96
2023-05-14T23:58:09.209Z,55.99
